Time;durP1;ratioP1;P1;durP2;ratioP2;P2;SDS_P1;SDS_P2;PMS_P1;PMS_P2;Temp;Humidity;BMP_temperature;BMP_pressure;BME280_temperature;BME280_humidity;BME280_pressure;Samples;Min_cycle;Max_cycle;Signal;HPM_P1;HPM_P2
2021/04/01 00:02:26;;;;;;;7.63;4.50;;;;;;;;;;4991979;28;20050;-73
2021/04/01 00:04:52;;;;;;;5.43;3.77;;;;;;;;;;4992214;28;20058;-73
2021/04/01 00:07:18;;;;;;;6.07;4.20;;;;;;;;;;4974134;28;20493;-73
2021/04/01 00:09:44;;;;;;;7.15;3.47;;;;;;;;;;4991997;28;20046;-73
2021/04/01 00:12:10;;;;;;;9.27;3.92;;;;;;;;;;4994647;28;20066;-73
2021/04/01 00:14:37;;;;;;;8.50;3.70;;;;;;;;;;5011566;28;20054;-72
2021/04/01 00:17:05;;;;;;;6.15;3.70;;;;;;;;;;5010823;28;20101;-73
2021/04/01 00:19:31;;;;;;;5.38;3.97;;;;;;;;;;5007309;28;20046;-74
2021/04/01 00:21:57;;;;;;;7.65;3.72;;;;;;;;;;4992223;28;20062;-73
2021/04/01 00:24:24;;;;;;;5.80;3.75;;;;;;;;;;4991838;28;20101;-73
2021/04/01 00:26:50;;;;;;;5.30;3.70;;;;;;;;;;4992718;28;20050;-73
2021/04/01 00:29:16;;;;;;;5.18;3.65;;;;;;;;;;4997279;28;20062;-73
2021/04/01 00:31:42;;;;;;;5.47;3.70;;;;;;;;;;4995766;28;20123;-73
2021/04/01 00:34:08;;;;;;;7.82;5.25;;;;;;;;;;4995481;28;20073;-73
2021/04/01 00:36:34;;;;;;;11.35;5.25;;;;;;;;;;4995021;28;20058;-73
2021/04/01 00:39:00;;;;;;;8.68;4.60;;;;;;;;;;4995515;28;20493;-73
2021/04/01 00:41:26;;;;;;;8.40;4.25;;;;;;;;;;4977971;28;20053;-73
2021/04/01 00:43:53;;;;;;;7.90;4.43;;;;;;;;;;4995577;28;20050;-73
2021/04/01 00:46:19;;;;;;;6.28;3.65;;;;;;;;;;4994590;28;20493;-73
2021/04/01 00:48:45;;;;;;;8.35;4.18;;;;;;;;;;4995123;28;20425;-73
2021/04/01 00:51:11;;;;;;;10.05;4.43;;;;;;;;;;4994951;28;20501;-73
2021/04/01 00:53:37;;;;;;;7.50;3.72;;;;;;;;;;4995090;28;20050;-73
2021/04/01 00:56:03;;;;;;;5.97;4.28;;;;;;;;;;4994646;28;20050;-73
2021/04/01 00:58:30;;;;;;;6.55;3.92;;;;;;;;;;4994795;28;20513;-71
2021/04/01 01:03:40;;;;;;;10.30;3.85;;;;;;;;;;4980394;28;20082;-73
2021/04/01 01:06:06;;;;;;;7.38;4.50;;;;;;;;;;4977489;28;20054;-73
2021/04/01 01:08:32;;;;;;;9.45;4.47;;;;;;;;;;4994608;28;20101;-73
2021/04/01 01:10:58;;;;;;;6.13;4.43;;;;;;;;;;4994651;28;20050;-74
2021/04/01 01:13:25;;;;;;;7.55;4.00;;;;;;;;;;4994627;28;20126;-73
2021/04/01 01:15:51;;;;;;;11.60;4.95;;;;;;;;;;4976945;28;20054;-73
2021/04/01 01:18:17;;;;;;;8.23;4.00;;;;;;;;;;4951026;28;20100;-73
2021/04/01 01:20:43;;;;;;;10.15;4.60;;;;;;;;;;5014301;28;20116;-73
2021/04/01 01:23:17;;;;;;;8.82;4.45;;;;;;;;;;5014085;28;20060;-73
2021/04/01 01:25:43;;;;;;;7.75;4.65;;;;;;;;;;5013537;28;20050;-73
2021/04/01 01:28:09;;;;;;;7.55;4.05;;;;;;;;;;5013909;28;20053;-74
2021/04/01 01:30:35;;;;;;;7.47;5.25;;;;;;;;;;4996645;28;20477;-74
2021/04/01 01:33:05;;;;;;;7.40;3.55;;;;;;;;;;5013791;28;20054;-72
2021/04/01 01:35:36;;;;;;;6.68;4.13;;;;;;;;;;4996323;28;20046;-74
2021/04/01 01:38:04;;;;;;;6.53;3.47;;;;;;;;;;5013366;28;20104;-74
2021/04/01 01:40:30;;;;;;;9.80;4.18;;;;;;;;;;5013924;28;20480;-74
2021/04/01 01:42:59;;;;;;;6.55;4.63;;;;;;;;;;5013748;28;20054;-73
2021/04/01 01:45:27;;;;;;;6.75;4.10;;;;;;;;;;4995531;28;20050;-74
2021/04/01 01:47:54;;;;;;;9.35;3.88;;;;;;;;;;4980504;28;20050;-71
2021/04/01 01:50:21;;;;;;;9.20;4.07;;;;;;;;;;4996361;28;20077;-71
2021/04/01 01:52:50;;;;;;;12.73;4.20;;;;;;;;;;4996777;28;20061;-71
2021/04/01 01:55:16;;;;;;;9.05;3.95;;;;;;;;;;4995663;28;20057;-72
2021/04/01 01:57:42;;;;;;;6.20;3.83;;;;;;;;;;5013264;28;20092;-71
2021/04/01 02:00:20;;;;;;;8.35;4.38;;;;;;;;;;4996000;28;20108;-71
2021/04/01 02:02:54;;;;;;;8.25;5.18;;;;;;;;;;4997209;28;20049;-72
2021/04/01 02:05:21;;;;;;;5.20;3.80;;;;;;;;;;5012549;28;20093;-71
2021/04/01 02:07:48;;;;;;;7.00;4.15;;;;;;;;;;4995999;28;20096;-70
2021/04/01 02:10:15;;;;;;;9.27;4.57;;;;;;;;;;5013286;28;20488;-73
2021/04/01 02:12:41;;;;;;;7.28;4.45;;;;;;;;;;4999521;28;20077;-71
2021/04/01 02:15:12;;;;;;;8.75;4.15;;;;;;;;;;4960147;28;20533;-70
2021/04/01 02:17:39;;;;;;;7.57;4.00;;;;;;;;;;4976147;28;20058;-71
2021/04/01 02:20:06;;;;;;;10.73;4.43;;;;;;;;;;4973972;28;20085;-71
2021/04/01 02:22:32;;;;;;;8.35;4.10;;;;;;;;;;5012878;28;20053;-71
2021/04/01 02:24:58;;;;;;;10.05;4.50;;;;;;;;;;5011395;28;20420;-70
2021/04/01 02:27:25;;;;;;;6.05;3.60;;;;;;;;;;5010482;28;20054;-71
2021/04/01 02:29:51;;;;;;;6.32;3.80;;;;;;;;;;5012449;28;20046;-71
2021/04/01 02:32:17;;;;;;;7.50;3.47;;;;;;;;;;5011553;28;20493;-71
2021/04/01 02:34:43;;;;;;;9.25;3.97;;;;;;;;;;5013027;28;20049;-71
2021/04/01 02:37:10;;;;;;;7.80;4.03;;;;;;;;;;5012013;28;20472;-71
2021/04/01 02:39:36;;;;;;;6.70;4.25;;;;;;;;;;5012743;28;20050;-70
2021/04/01 02:42:03;;;;;;;8.13;4.53;;;;;;;;;;5012783;28;20048;-71
2021/04/01 02:44:29;;;;;;;7.82;4.15;;;;;;;;;;4991663;28;20058;-71
2021/04/01 02:46:55;;;;;;;10.18;4.30;;;;;;;;;;4975203;28;20078;-71
2021/04/01 02:49:21;;;;;;;9.60;4.90;;;;;;;;;;4992026;28;20062;-71
2021/04/01 02:51:48;;;;;;;5.47;3.83;;;;;;;;;;5010960;28;20076;-71
2021/04/01 02:54:14;;;;;;;9.45;3.88;;;;;;;;;;5012375;28;20054;-71
2021/04/01 02:56:40;;;;;;;9.05;3.80;;;;;;;;;;5012014;28;20073;-71
2021/04/01 02:59:06;;;;;;;7.60;4.30;;;;;;;;;;5012386;28;20456;-71
2021/04/01 03:01:33;;;;;;;6.10;3.95;;;;;;;;;;5012312;28;20054;-71
2021/04/01 03:04:00;;;;;;;6.25;4.28;;;;;;;;;;5012352;28;20053;-71
2021/04/01 03:06:26;;;;;;;7.82;3.60;;;;;;;;;;5011607;28;20119;-70
2021/04/01 03:08:52;;;;;;;10.38;4.43;;;;;;;;;;4994694;28;20074;-71
2021/04/01 03:11:21;;;;;;;7.60;3.92;;;;;;;;;;5012308;28;20054;-70
2021/04/01 03:13:47;;;;;;;5.50;4.22;;;;;;;;;;5012190;28;20049;-72
2021/04/01 03:16:13;;;;;;;8.00;4.78;;;;;;;;;;5011500;28;20472;-73
2021/04/01 03:18:39;;;;;;;7.85;4.60;;;;;;;;;;5012598;28;20049;-73
2021/04/01 03:21:05;;;;;;;7.90;4.00;;;;;;;;;;5011934;28;20123;-73
2021/04/01 03:23:32;;;;;;;6.72;4.22;;;;;;;;;;5011918;28;20113;-74
2021/04/01 03:25:58;;;;;;;12.85;4.55;;;;;;;;;;5011414;28;20050;-74
2021/04/01 03:28:25;;;;;;;6.97;4.13;;;;;;;;;;4978254;28;20054;-74
2021/04/01 03:31:09;;;;;;;6.60;4.13;;;;;;;;;;5011827;28;20056;-75
2021/04/01 03:33:35;;;;;;;6.53;3.88;;;;;;;;;;5012044;28;20046;-73
2021/04/01 03:36:02;;;;;;;9.13;4.20;;;;;;;;;;5011104;28;20086;-73
2021/04/01 03:38:28;;;;;;;6.35;4.72;;;;;;;;;;5011837;28;20054;-74
2021/04/01 03:40:55;;;;;;;6.53;3.85;;;;;;;;;;5011817;28;20563;-74
2021/04/01 03:43:22;;;;;;;8.93;3.72;;;;;;;;;;4994684;28;20285;-74
2021/04/01 03:45:49;;;;;;;6.90;4.35;;;;;;;;;;5011197;28;20100;-74
2021/04/01 03:48:15;;;;;;;5.60;3.72;;;;;;;;;;4990739;28;20050;-73
2021/04/01 03:50:41;;;;;;;8.15;4.13;;;;;;;;;;4991775;28;20441;-74
2021/04/01 03:53:07;;;;;;;9.98;4.38;;;;;;;;;;4992087;28;20108;-74
2021/04/01 03:58:25;;;;;;;12.80;4.38;;;;;;;;;;5004493;28;20058;-74
2021/04/01 04:06:39;;;;;;;11.52;4.25;;;;;;;;;;5014745;28;20045;-74
2021/04/01 04:12:36;;;;;;;6.50;4.15;;;;;;;;;;5015473;28;20454;-74
2021/04/01 04:14:43;;;;;;;6.20;5.00;;;;;;;;;;5004978;28;20088;-74
2021/04/01 04:17:09;;;;;;;8.65;4.40;;;;;;;;;;5014559;28;20050;-74
2021/04/01 04:19:35;;;;;;;7.78;4.55;;;;;;;;;;4981937;28;20050;-74
2021/04/01 04:22:01;;;;;;;8.95;4.15;;;;;;;;;;5015560;28;20478;-74
2021/04/01 04:24:29;;;;;;;8.05;4.05;;;;;;;;;;5015353;28;20092;-74
2021/04/01 04:27:00;;;;;;;7.50;4.65;;;;;;;;;;5014370;28;20496;-74
2021/04/01 04:29:26;;;;;;;7.85;4.00;;;;;;;;;;5015117;28;20111;-74
2021/04/01 04:31:52;;;;;;;7.95;3.92;;;;;;;;;;5015178;28;20120;-74
2021/04/01 04:34:18;;;;;;;10.85;5.30;;;;;;;;;;5015392;28;20112;-74
2021/04/01 04:36:44;;;;;;;10.55;4.18;;;;;;;;;;5014494;28;20050;-74
2021/04/01 04:39:10;;;;;;;7.03;4.40;;;;;;;;;;4997712;28;20077;-74
2021/04/01 04:41:36;;;;;;;7.65;4.10;;;;;;;;;;4997878;28;20496;-74
2021/04/01 04:44:02;;;;;;;6.32;4.20;;;;;;;;;;5015036;28;20600;-74
2021/04/01 04:46:28;;;;;;;10.05;3.90;;;;;;;;;;5014329;28;20421;-74
2021/04/01 04:48:54;;;;;;;8.88;5.20;;;;;;;;;;4998529;28;20464;-74
2021/04/01 04:51:21;;;;;;;7.53;3.65;;;;;;;;;;4996527;28;20464;-74
2021/04/01 04:53:47;;;;;;;6.95;4.65;;;;;;;;;;5004574;28;20656;-74
2021/04/01 04:56:16;;;;;;;13.70;5.20;;;;;;;;;;4994330;28;20053;-73
2021/04/01 05:04:55;;;;;;;9.88;3.92;;;;;;;;;;5013371;28;20049;-75
2021/04/01 05:07:16;;;;;;;6.15;4.43;;;;;;;;;;4970920;28;20049;-74
2021/04/01 05:09:35;;;;;;;9.75;4.30;;;;;;;;;;5010552;28;20050;-74
2021/04/01 05:12:02;;;;;;;5.68;4.32;;;;;;;;;;5008731;28;20046;-72
2021/04/01 05:14:28;;;;;;;5.50;3.75;;;;;;;;;;5012477;28;20053;-74
2021/04/01 05:16:54;;;;;;;5.90;4.13;;;;;;;;;;5011852;28;20463;-74
2021/04/01 05:19:22;;;;;;;6.68;3.95;;;;;;;;;;4991589;28;20054;-73
2021/04/01 05:22:00;;;;;;;9.20;4.00;;;;;;;;;;5011383;28;20460;-73
2021/04/01 05:24:27;;;;;;;11.18;4.35;;;;;;;;;;5009659;28;20112;-74
2021/04/01 05:29:33;;;;;;;8.63;4.47;;;;;;;;;;4995803;28;20513;-74
2021/04/01 05:32:01;;;;;;;7.20;3.92;;;;;;;;;;5012269;28;20081;-74
2021/04/01 05:34:28;;;;;;;6.20;4.00;;;;;;;;;;5012604;28;20053;-74
2021/04/01 05:36:55;;;;;;;10.40;4.70;;;;;;;;;;5010518;28;20100;-74
2021/04/01 05:39:35;;;;;;;10.70;4.95;;;;;;;;;;5012279;28;20053;-74
2021/04/01 05:42:02;;;;;;;7.20;4.57;;;;;;;;;;5009129;28;20108;-71
2021/04/01 05:44:40;;;;;;;7.30;4.25;;;;;;;;;;5012822;28;20053;-71
2021/04/01 05:50:07;;;;;;;9.60;5.43;;;;;;;;;;5012863;28;20460;-74
2021/04/01 05:58:04;;;;;;;8.65;4.90;;;;;;;;;;5009475;28;20046;-73
2021/04/01 06:06:06;;;;;;;12.40;5.43;;;;;;;;;;4983635;28;20136;-76
2021/04/01 06:08:51;;;;;;;11.43;5.65;;;;;;;;;;4995053;28;20057;-74
2021/04/01 06:11:20;;;;;;;10.32;5.07;;;;;;;;;;4987445;28;20050;-73
2021/04/01 06:14:11;;;;;;;19.15;5.57;;;;;;;;;;5011181;28;20428;-73
2021/04/01 06:16:40;;;;;;;15.27;5.03;;;;;;;;;;4994994;28;20480;-72
2021/04/01 06:19:11;;;;;;;12.40;5.68;;;;;;;;;;4992665;28;20107;-73
2021/04/01 06:21:41;;;;;;;12.63;4.75;;;;;;;;;;4994399;28;20575;-73
2021/04/01 06:24:24;;;;;;;10.18;4.70;;;;;;;;;;4986004;28;20047;-73
2021/04/01 06:27:00;;;;;;;9.95;4.53;;;;;;;;;;4992151;28;20046;-73
2021/04/01 06:29:28;;;;;;;8.60;4.55;;;;;;;;;;4978403;28;20057;-73
2021/04/01 06:31:58;;;;;;;15.85;5.43;;;;;;;;;;4977596;28;20053;-73
2021/04/01 06:34:39;;;;;;;9.52;4.93;;;;;;;;;;4995138;28;20487;-73
2021/04/01 06:37:18;;;;;;;7.63;4.47;;;;;;;;;;5000083;28;20137;-75
2021/04/01 06:39:45;;;;;;;10.30;4.90;;;;;;;;;;4981374;28;20050;-76
2021/04/01 06:42:19;;;;;;;13.30;6.18;;;;;;;;;;4974340;28;20062;-75
2021/04/01 06:44:57;;;;;;;9.13;4.95;;;;;;;;;;4984631;28;20046;-76
2021/04/01 06:47:24;;;;;;;12.93;5.35;;;;;;;;;;4974101;28;20156;-75
2021/04/01 06:49:59;;;;;;;14.88;5.85;;;;;;;;;;4975400;28;20493;-75
2021/04/01 06:52:39;;;;;;;9.88;5.35;;;;;;;;;;4967413;28;20484;-75
2021/04/01 06:58:30;;;;;;;7.95;5.03;;;;;;;;;;4970824;28;20211;-76
2021/04/01 07:01:22;;;;;;;13.07;6.75;;;;;;;;;;4968317;28;20054;-73
2021/04/01 07:03:58;;;;;;;10.35;5.80;;;;;;;;;;4975102;28;20038;-73
2021/04/01 07:06:32;;;;;;;11.18;5.13;;;;;;;;;;4995308;28;20140;-73
2021/04/01 07:09:17;;;;;;;9.77;5.90;;;;;;;;;;5007418;28;20343;-73
2021/04/01 07:11:43;;;;;;;9.10;5.28;;;;;;;;;;4994280;28;20045;-73
2021/04/01 07:14:18;;;;;;;9.25;5.28;;;;;;;;;;4975830;28;20056;-71
2021/04/01 07:16:54;;;;;;;11.02;5.55;;;;;;;;;;4974978;28;20133;-71
2021/04/01 07:47:18;;;;;;;11.02;6.30;;;;;;;;;;5009950;28;20050;-73
2021/04/01 07:49:48;;;;;;;;;;;;;;;;;;4990686;28;20096;-73
2021/04/01 07:52:19;;;;;;;9.63;6.22;;;;;;;;;;5009260;28;19973;-73
2021/04/01 07:54:56;;;;;;;11.70;5.72;;;;;;;;;;4983608;28;20557;-73
2021/04/01 07:57:57;;;;;;;14.07;6.70;;;;;;;;;;5009276;28;20058;-73
2021/04/01 08:00:29;;;;;;;11.60;6.03;;;;;;;;;;4979647;28;20054;-73
2021/04/01 08:05:35;;;;;;;9.88;6.50;;;;;;;;;;4991752;28;20061;-73
2021/04/01 08:08:06;;;;;;;12.35;6.45;;;;;;;;;;4977660;28;20093;-70
2021/04/01 08:10:39;;;;;;;12.02;6.05;;;;;;;;;;5009118;28;20112;-69
2021/04/01 08:13:11;;;;;;;10.45;6.07;;;;;;;;;;5010026;28;20042;-71
2021/04/01 08:15:41;;;;;;;15.20;7.00;;;;;;;;;;4969975;28;20081;-71
2021/04/01 08:20:36;;;;;;;8.18;6.32;;;;;;;;;;4992881;28;20050;-70
2021/04/01 08:23:32;;;;;;;10.73;5.57;;;;;;;;;;4994625;28;20412;-71
2021/04/01 08:32:31;;;;;;;13.98;6.20;;;;;;;;;;5008199;28;20056;-70
2021/04/01 08:35:17;;;;;;;10.40;5.45;;;;;;;;;;4996006;28;20409;-70
2021/04/01 08:38:13;;;;;;;9.10;5.38;;;;;;;;;;4975548;28;20056;-69
2021/04/01 08:41:06;;;;;;;10.07;5.78;;;;;;;;;;5006889;28;20375;-73
2021/04/01 08:44:15;;;;;;;13.73;5.65;;;;;;;;;;4984803;28;20057;-74
2021/04/01 08:47:04;;;;;;;8.68;5.40;;;;;;;;;;4996115;28;20054;-69
2021/04/01 08:49:43;;;;;;;9.70;5.63;;;;;;;;;;5013090;28;20085;-70
2021/04/01 08:52:47;;;;;;;11.02;5.80;;;;;;;;;;4994489;28;20093;-69
2021/04/01 08:55:14;;;;;;;;;;;;;;;;;;5013093;28;20440;-70
2021/04/01 08:58:03;;;;;;;12.15;4.97;;;;;;;;;;5001467;28;19925;-70
2021/04/01 09:00:31;;;;;;;13.15;5.57;;;;;;;;;;5012573;28;20483;-70
2021/04/01 09:02:57;;;;;;;11.73;5.40;;;;;;;;;;5012545;28;20521;-70
2021/04/01 09:05:24;;;;;;;8.93;5.22;;;;;;;;;;5011868;28;20054;-71
2021/04/01 09:08:01;;;;;;;12.40;4.80;;;;;;;;;;5012793;28;20056;-70
2021/04/01 09:15:42;;;;;;;9.05;5.20;;;;;;;;;;5010248;28;20054;-70
2021/04/01 09:18:18;;;;;;;11.80;5.28;;;;;;;;;;4989552;28;20056;-71
2021/04/01 09:20:48;;;;;;;11.00;5.32;;;;;;;;;;4987324;28;20504;-71
2021/04/01 09:23:38;;;;;;;13.20;5.65;;;;;;;;;;5008674;28;20050;-71
2021/04/01 09:26:05;;;;;;;12.70;5.28;;;;;;;;;;4992370;28;20085;-71
2021/04/01 09:28:34;;;;;;;6.95;5.07;;;;;;;;;;5011739;28;20054;-71
2021/04/01 09:31:01;;;;;;;14.77;5.78;;;;;;;;;;5012148;28;20092;-70
2021/04/01 09:33:29;;;;;;;7.68;4.90;;;;;;;;;;5012093;28;20081;-71
2021/04/01 09:36:15;;;;;;;10.73;5.40;;;;;;;;;;4978817;28;20082;-71
2021/04/01 09:38:48;;;;;;;12.30;5.47;;;;;;;;;;5010392;28;20050;-71
2021/04/01 09:41:28;;;;;;;11.70;5.88;;;;;;;;;;4985793;28;20050;-71
2021/04/01 09:43:55;;;;;;;9.45;4.95;;;;;;;;;;5012479;28;20096;-71
2021/04/01 09:46:22;;;;;;;10.50;5.18;;;;;;;;;;5011122;28;20132;-69
2021/04/01 09:48:53;;;;;;;13.02;5.15;;;;;;;;;;5012283;28;20130;-73
2021/04/01 09:51:21;;;;;;;10.95;5.30;;;;;;;;;;4987506;28;20052;-71
2021/04/01 09:53:52;;;;;;;11.13;5.15;;;;;;;;;;4994139;28;20069;-73
2021/04/01 09:56:23;;;;;;;11.30;4.68;;;;;;;;;;5011116;28;20132;-74
2021/04/01 09:58:51;;;;;;;7.68;4.05;;;;;;;;;;5011267;28;20619;-72
2021/04/01 10:04:12;;;;;;;6.00;3.35;;;;;;;;;;4995293;28;20054;-71
2021/04/01 10:06:41;;;;;;;5.32;2.83;;;;;;;;;;5011168;28;20485;-70
2021/04/01 10:09:14;;;;;;;7.28;2.65;;;;;;;;;;4993802;28;20042;-71
2021/04/01 10:11:57;;;;;;;6.20;2.90;;;;;;;;;;4994032;28;20049;-73
2021/04/01 10:14:24;;;;;;;5.38;2.85;;;;;;;;;;5010826;28;20520;-72
2021/04/01 10:16:59;;;;;;;11.57;3.50;;;;;;;;;;4993891;28;20081;-72
2021/04/01 10:19:58;;;;;;;6.68;3.00;;;;;;;;;;4987561;28;20057;-70
2021/04/01 10:22:29;;;;;;;5.78;3.22;;;;;;;;;;4996026;28;20499;-69
2021/04/01 10:28:08;;;;;;;7.80;3.30;;;;;;;;;;4985469;28;20053;-71
2021/04/01 10:30:36;;;;;;;7.45;3.60;;;;;;;;;;4984657;28;20415;-71
2021/04/01 10:33:20;;;;;;;9.02;3.03;;;;;;;;;;5011510;28;20042;-71
2021/04/01 10:35:50;;;;;;;5.50;2.63;;;;;;;;;;4993177;28;20389;-71
2021/04/01 10:38:21;;;;;;;5.70;3.30;;;;;;;;;;4985631;28;20156;-71
2021/04/01 10:40:48;;;;;;;7.68;3.65;;;;;;;;;;5010758;28;20049;-71
2021/04/01 10:43:17;;;;;;;7.82;2.80;;;;;;;;;;4984543;28;20413;-71
2021/04/01 10:45:44;;;;;;;6.43;2.40;;;;;;;;;;4991989;28;20046;-71
2021/04/01 10:48:43;;;;;;;3.83;2.38;;;;;;;;;;4991556;28;20046;-72
2021/04/01 10:51:10;;;;;;;6.15;2.53;;;;;;;;;;4997170;28;20124;-72
2021/04/01 10:53:42;;;;;;;8.07;2.80;;;;;;;;;;5010715;28;20065;-72
2021/04/01 10:56:12;;;;;;;6.13;3.17;;;;;;;;;;4986983;28;20034;-72
2021/04/01 10:58:53;;;;;;;5.40;3.28;;;;;;;;;;4992570;28;20524;-73
2021/04/01 11:01:24;;;;;;;6.22;3.40;;;;;;;;;;5009945;28;20132;-72
2021/04/01 11:03:53;;;;;;;8.88;2.88;;;;;;;;;;4991752;28;20080;-74
2021/04/01 11:06:21;;;;;;;4.95;3.03;;;;;;;;;;4991494;28;20532;-72
2021/04/01 11:08:50;;;;;;;6.78;2.63;;;;;;;;;;4992377;28;20092;-74
2021/04/01 11:11:17;;;;;;;4.10;2.65;;;;;;;;;;5009208;28;20060;-70
2021/04/01 11:13:47;;;;;;;6.13;2.45;;;;;;;;;;4971331;28;20050;-70
2021/04/01 11:16:15;;;;;;;5.47;2.28;;;;;;;;;;4987774;28;20053;-72
2021/04/01 11:18:46;;;;;;;5.63;2.40;;;;;;;;;;4992567;28;20129;-72
2021/04/01 11:21:16;;;;;;;6.95;2.53;;;;;;;;;;4994214;28;20053;-71
2021/04/01 11:23:42;;;;;;;5.63;2.05;;;;;;;;;;4992676;28;20050;-72
2021/04/01 11:26:08;;;;;;;4.25;2.10;;;;;;;;;;4991943;28;20061;-71
2021/04/01 11:28:38;;;;;;;5.85;2.50;;;;;;;;;;4988374;28;20473;-72
2021/04/01 11:31:06;;;;;;;4.50;2.22;;;;;;;;;;5009964;28;20493;-71
2021/04/01 11:33:32;;;;;;;4.72;2.22;;;;;;;;;;4986235;28;20049;-71
2021/04/01 11:36:08;;;;;;;5.53;3.15;;;;;;;;;;5001371;28;20089;-71
2021/04/01 11:38:41;;;;;;;9.73;3.08;;;;;;;;;;5009766;28;20509;-71
2021/04/01 11:41:09;;;;;;;4.15;3.00;;;;;;;;;;4992765;28;20050;-70
2021/04/01 11:43:37;;;;;;;5.15;2.58;;;;;;;;;;5010186;28;20061;-70
2021/04/01 11:46:24;;;;;;;3.72;1.95;;;;;;;;;;4981829;28;20050;-71
2021/04/01 11:48:51;;;;;;;4.43;2.80;;;;;;;;;;5008924;28;20460;-71
2021/04/01 11:51:23;;;;;;;6.15;3.03;;;;;;;;;;4984597;28;20050;-72
2021/04/01 11:53:49;;;;;;;5.03;2.85;;;;;;;;;;4991756;28;20050;-72
2021/04/01 11:56:17;;;;;;;4.57;2.60;;;;;;;;;;4970988;28;20050;-72
2021/04/01 11:58:44;;;;;;;4.25;2.40;;;;;;;;;;4972425;28;20046;-72
2021/04/01 12:01:27;;;;;;;4.55;1.90;;;;;;;;;;5005793;28;20582;-72
2021/04/01 12:03:58;;;;;;;4.18;2.13;;;;;;;;;;5007550;28;20054;-72
2021/04/01 12:06:26;;;;;;;8.32;2.78;;;;;;;;;;4974126;28;20119;-72
2021/04/01 12:08:53;;;;;;;8.98;3.13;;;;;;;;;;4972295;28;20100;-72
2021/04/01 12:11:19;;;;;;;6.25;2.80;;;;;;;;;;5008028;28;20054;-72
2021/04/01 12:13:45;;;;;;;7.53;2.35;;;;;;;;;;4985863;28;20417;-72
2021/04/01 12:16:21;;;;;;;4.13;2.85;;;;;;;;;;4988795;28;20057;-72
2021/04/01 12:18:47;;;;;;;4.20;2.40;;;;;;;;;;4990377;28;20058;-72
2021/04/01 12:21:17;;;;;;;6.05;2.78;;;;;;;;;;5008771;28;20136;-72
2021/04/01 12:23:49;;;;;;;3.58;2.60;;;;;;;;;;4994090;28;20527;-72
2021/04/01 12:26:15;;;;;;;7.43;2.90;;;;;;;;;;5008269;28;20101;-72
2021/04/01 12:28:42;;;;;;;5.03;2.38;;;;;;;;;;4979340;28;20099;-72
2021/04/01 12:31:14;;;;;;;5.35;2.33;;;;;;;;;;4994254;28;20552;-72
2021/04/01 12:33:48;;;;;;;3.83;2.00;;;;;;;;;;5011008;28;20046;-72
2021/04/01 12:36:15;;;;;;;6.65;2.90;;;;;;;;;;5012285;28;20493;-72
2021/04/01 12:38:43;;;;;;;3.05;2.17;;;;;;;;;;5013156;28;20493;-72
2021/04/01 12:41:26;;;;;;;6.28;2.38;;;;;;;;;;4994932;28;20050;-72
2021/04/01 12:43:52;;;;;;;4.05;2.80;;;;;;;;;;5013027;28;20049;-72
2021/04/01 12:46:18;;;;;;;9.13;2.85;;;;;;;;;;4976125;28;20049;-72
2021/04/01 12:48:52;;;;;;;3.15;2.25;;;;;;;;;;5012713;28;20092;-72
2021/04/01 12:51:20;;;;;;;4.40;2.67;;;;;;;;;;5012843;28;20096;-71
2021/04/01 12:54:20;;;;;;;4.75;2.53;;;;;;;;;;4987983;28;20096;-73
2021/04/01 12:56:55;;;;;;;6.35;2.35;;;;;;;;;;5011087;28;20579;-72
2021/04/01 12:59:30;;;;;;;4.22;2.22;;;;;;;;;;4972464;28;20130;-72
2021/04/01 13:02:17;;;;;;;4.53;2.55;;;;;;;;;;4978866;28;20501;-71
2021/04/01 13:04:53;;;;;;;6.82;2.30;;;;;;;;;;5013095;28;20077;-72
2021/04/01 13:07:29;;;;;;;4.55;2.50;;;;;;;;;;4976342;28;20490;-71
2021/04/01 13:12:43;;;;;;;5.10;2.33;;;;;;;;;;4991729;28;20449;-72
2021/04/01 13:15:09;;;;;;;8.63;2.90;;;;;;;;;;5008603;28;20050;-72
2021/04/01 13:17:35;;;;;;;5.47;2.63;;;;;;;;;;5012458;28;20574;-72
2021/04/01 13:20:02;;;;;;;6.72;3.25;;;;;;;;;;5013430;28;20496;-75
2021/04/01 13:22:31;;;;;;;4.65;2.22;;;;;;;;;;5013335;28;20068;-72
2021/04/01 13:25:30;;;;;;;6.10;2.88;;;;;;;;;;4980574;28;20049;-73
2021/04/01 13:27:50;;;;;;;5.25;3.38;;;;;;;;;;5009992;28;20057;-72
2021/04/01 13:30:21;;;;;;;4.45;2.53;;;;;;;;;;5004529;28;20047;-72
2021/04/01 13:38:11;;;;;;;9.73;2.50;;;;;;;;;;4993224;28;20054;-72
2021/04/01 13:40:40;;;;;;;4.28;3.05;;;;;;;;;;4993678;28;20050;-73
2021/04/01 13:43:07;;;;;;;3.33;2.67;;;;;;;;;;5010874;28;20046;-72
2021/04/01 13:45:33;;;;;;;7.63;2.95;;;;;;;;;;4995207;28;20157;-72
2021/04/01 13:48:04;;;;;;;6.05;2.70;;;;;;;;;;4991851;28;20054;-73
2021/04/01 13:50:33;;;;;;;6.20;3.28;;;;;;;;;;4976723;28;20496;-72
2021/04/01 13:56:06;;;;;;;8.90;3.10;;;;;;;;;;4996898;28;20047;-70
2021/04/01 14:09:42;;;;;;;8.23;3.63;;;;;;;;;;4987315;28;20100;-73
2021/04/01 14:12:09;;;;;;;6.30;3.40;;;;;;;;;;4967957;28;20564;-74
2021/04/01 14:14:36;;;;;;;5.93;3.08;;;;;;;;;;4994519;28;20046;-72
2021/04/01 14:17:06;;;;;;;7.70;3.53;;;;;;;;;;5011556;28;20050;-76
2021/04/01 14:19:34;;;;;;;6.70;3.50;;;;;;;;;;4952010;28;20046;-73
2021/04/01 14:22:02;;;;;;;7.28;3.83;;;;;;;;;;4985392;28;20092;-74
2021/04/01 14:29:45;;;;;;;7.40;3.72;;;;;;;;;;4982548;28;20192;-73
2021/04/01 14:32:12;;;;;;;4.63;3.10;;;;;;;;;;4993369;28;20080;-71
2021/04/01 14:34:38;;;;;;;7.53;3.55;;;;;;;;;;5010600;28;20493;-72
2021/04/01 14:37:06;;;;;;;6.18;3.10;;;;;;;;;;4972382;28;20050;-72
2021/04/01 14:39:32;;;;;;;6.63;3.45;;;;;;;;;;4993518;28;20054;-73
2021/04/01 14:42:08;;;;;;;7.60;2.88;;;;;;;;;;5010914;28;20046;-72
2021/04/01 14:44:34;;;;;;;7.32;3.08;;;;;;;;;;5010617;28;20093;-73
2021/04/01 14:47:01;;;;;;;3.63;2.72;;;;;;;;;;4992498;28;20129;-73
2021/04/01 14:49:27;;;;;;;6.80;3.17;;;;;;;;;;4980417;28;20165;-72
2021/04/01 14:51:53;;;;;;;6.55;2.88;;;;;;;;;;5001786;28;20037;-70
2021/04/01 14:54:26;;;;;;;5.50;3.10;;;;;;;;;;5010513;28;20050;-69
2021/04/01 14:56:56;;;;;;;5.65;2.50;;;;;;;;;;5011440;28;20065;-69
2021/04/01 14:59:25;;;;;;;6.25;3.15;;;;;;;;;;5012189;28;20058;-70
2021/04/01 15:01:58;;;;;;;6.70;3.45;;;;;;;;;;5009942;28;20053;-70
2021/04/01 15:04:25;;;;;;;5.00;2.60;;;;;;;;;;5010637;28;20257;-70
2021/04/01 15:06:52;;;;;;;9.30;3.45;;;;;;;;;;4992428;28;20553;-69
2021/04/01 15:09:19;;;;;;;6.57;3.45;;;;;;;;;;4985293;28;20049;-70
2021/04/01 15:11:48;;;;;;;7.40;3.45;;;;;;;;;;5010278;28;20504;-70
2021/04/01 15:14:15;;;;;;;8.15;3.70;;;;;;;;;;5010402;28;20054;-71
2021/04/01 15:16:42;;;;;;;6.32;3.88;;;;;;;;;;4991988;28;20050;-71
2021/04/01 15:19:09;;;;;;;5.47;3.97;;;;;;;;;;5018448;28;20038;-71
2021/04/01 15:21:35;;;;;;;8.70;3.03;;;;;;;;;;4969314;28;20108;-72
2021/04/01 15:24:02;;;;;;;6.95;3.35;;;;;;;;;;5011408;28;20104;-72
2021/04/01 15:26:29;;;;;;;12.23;3.25;;;;;;;;;;4966513;28;20058;-71
2021/04/01 15:28:55;;;;;;;8.52;3.90;;;;;;;;;;4988275;28;20574;-72
2021/04/01 15:31:23;;;;;;;7.47;3.03;;;;;;;;;;4993516;28;20050;-72
2021/04/01 15:33:49;;;;;;;7.05;3.03;;;;;;;;;;4993052;28;20045;-70
2021/04/01 15:36:15;;;;;;;7.07;2.72;;;;;;;;;;5009888;28;20073;-70
2021/04/01 15:38:42;;;;;;;10.38;3.25;;;;;;;;;;5010788;28;20054;-70
2021/04/01 15:41:09;;;;;;;7.80;3.20;;;;;;;;;;5009917;28;20050;-70
2021/04/01 15:43:35;;;;;;;5.50;3.47;;;;;;;;;;5010593;28;20042;-71
2021/04/01 15:46:02;;;;;;;9.95;3.53;;;;;;;;;;5009340;28;20053;-73
2021/04/01 15:48:28;;;;;;;6.97;3.80;;;;;;;;;;4992225;28;20061;-73
2021/04/01 15:50:54;;;;;;;9.05;4.07;;;;;;;;;;5010180;28;20085;-73
2021/04/01 15:53:21;;;;;;;9.35;4.10;;;;;;;;;;5006311;28;20445;-74
2021/04/01 15:55:48;;;;;;;10.73;4.50;;;;;;;;;;5008995;28;20089;-74
2021/04/01 15:58:15;;;;;;;9.68;6.22;;;;;;;;;;5013492;28;20061;-72
2021/04/01 16:00:42;;;;;;;11.85;5.85;;;;;;;;;;5015029;28;20077;-72
2021/04/01 16:03:11;;;;;;;16.33;6.25;;;;;;;;;;4972729;28;20104;-72
2021/04/01 16:05:37;;;;;;;12.45;7.38;;;;;;;;;;5013319;28;20108;-71
2021/04/01 16:08:04;;;;;;;16.60;8.23;;;;;;;;;;5013950;28;20057;-74
2021/04/01 16:10:31;;;;;;;12.48;7.15;;;;;;;;;;4996964;28;20443;-72
2021/04/01 16:13:09;;;;;;;18.38;8.45;;;;;;;;;;4996594;28;20081;-77
2021/04/01 16:15:51;;;;;;;16.17;9.10;;;;;;;;;;4979082;28;20414;-74
2021/04/01 16:18:18;;;;;;;18.83;9.23;;;;;;;;;;4996049;28;20050;-73
2021/04/01 16:20:45;;;;;;;18.55;10.00;;;;;;;;;;4986757;28;20050;-74
2021/04/01 16:23:12;;;;;;;19.15;10.93;;;;;;;;;;4996973;28;20365;-72
2021/04/01 16:25:39;;;;;;;18.67;10.75;;;;;;;;;;5012671;28;20061;-72
2021/04/01 16:28:06;;;;;;;20.27;11.38;;;;;;;;;;5058334;23;20041;-73
2021/04/01 16:30:33;;;;;;;21.00;10.43;;;;;;;;;;4993614;28;20423;-74
2021/04/01 16:33:07;;;;;;;17.52;11.43;;;;;;;;;;5002194;28;20050;-74
2021/04/01 16:35:36;;;;;;;20.27;10.88;;;;;;;;;;5025981;28;20057;-72
2021/04/01 16:38:06;;;;;;;23.83;11.90;;;;;;;;;;5032811;28;20058;-73
2021/04/01 16:40:42;;;;;;;18.38;11.02;;;;;;;;;;5007059;28;20137;-74
2021/04/01 16:43:09;;;;;;;18.80;10.93;;;;;;;;;;4999581;28;20057;-71
2021/04/01 16:45:38;;;;;;;21.70;11.05;;;;;;;;;;5012093;28;20075;-71
2021/04/01 16:48:05;;;;;;;27.88;11.77;;;;;;;;;;5032539;28;20053;-72
2021/04/01 16:50:32;;;;;;;19.80;11.23;;;;;;;;;;5015579;28;20488;-76
2021/04/01 16:53:14;;;;;;;19.95;11.73;;;;;;;;;;4990912;28;20050;-73
2021/04/01 16:55:43;;;;;;;;;;;;;;;;;;5014152;28;20429;-72
2021/04/01 16:58:11;;;;;;;24.50;12.60;;;;;;;;;;5023462;28;20312;-72